Time;durP1;ratioP1;P1;durP2;ratioP2;P2;SDS_P1;SDS_P2;PMS_P1;PMS_P2;Temp;Humidity;BMP_temperature;BMP_pressure;BME280_temperature;BME280_humidity;BME280_pressure;Samples;Min_cycle;Max_cycle;Signal;HPM_P1;HPM_P2
2021/11/16 00:01:49;;;;;;;0.70;0.70;;;;;;;;;;7335262;19;154141;-13
2021/11/16 00:04:21;;;;;;;0.60;0.60;;;;;;;;;;7333807;19;153616;-14
2021/11/16 00:06:53;;;;;;;0.70;0.70;;;;;;;;;;7334841;19;162152;-15
2021/11/16 00:09:25;;;;;;;0.70;0.70;;;;;;;;;;7335005;19;162431;-14
2021/11/16 00:11:56;;;;;;;0.60;0.60;;;;;;;;;;7332042;19;153978;-12
2021/11/16 00:14:29;;;;;;;0.50;0.50;;;;;;;;;;7331713;19;153758;-13
2021/11/16 00:17:03;;;;;;;;;;;;;;;;;;7330016;19;162217;-15
2021/11/16 00:19:34;;;;;;;0.90;0.73;;;;;;;;;;7331110;19;162578;-13
2021/11/16 00:22:07;;;;;;;0.60;0.60;;;;;;;;;;7335871;19;154089;-16
2021/11/16 00:24:43;;;;;;;0.60;0.60;;;;;;;;;;7331744;19;153610;-15
2021/11/16 00:27:14;;;;;;;0.50;0.50;;;;;;;;;;7330521;19;161866;-15
2021/11/16 00:29:46;;;;;;;0.60;0.60;;;;;;;;;;7330331;19;162674;-16
2021/11/16 00:32:19;;;;;;;0.52;0.50;;;;;;;;;;7331867;19;153999;-14
2021/11/16 00:34:51;;;;;;;0.50;0.50;;;;;;;;;;7331653;19;153498;-14
2021/11/16 00:37:25;;;;;;;0.60;0.60;;;;;;;;;;7329164;19;161938;-15
2021/11/16 00:39:57;;;;;;;0.75;0.75;;;;;;;;;;7331065;19;162508;-13
2021/11/16 00:42:29;;;;;;;0.50;0.50;;;;;;;;;;7331420;19;153975;-15
2021/11/16 00:45:01;;;;;;;0.57;0.57;;;;;;;;;;7331283;19;153711;-15
2021/11/16 00:47:35;;;;;;;0.60;0.60;;;;;;;;;;7330856;19;161788;-14
2021/11/16 00:50:07;;;;;;;0.52;0.52;;;;;;;;;;7334303;19;163726;-15
2021/11/16 00:52:39;;;;;;;0.50;0.50;;;;;;;;;;7331230;19;154020;-15
2021/11/16 00:55:11;;;;;;;0.50;0.50;;;;;;;;;;7333706;19;153564;-14
2021/11/16 00:57:43;;;;;;;0.60;0.60;;;;;;;;;;7327616;19;162055;-16
2021/11/16 01:00:18;;;;;;;0.60;0.60;;;;;;;;;;7330459;19;162280;-13
2021/11/16 01:02:51;;;;;;;0.55;0.55;;;;;;;;;;7330996;19;154480;-14
2021/11/16 01:05:23;;;;;;;0.50;0.50;;;;;;;;;;7330688;19;153516;-14
2021/11/16 01:07:54;;;;;;;0.50;0.50;;;;;;;;;;7330126;19;161991;-15
2021/11/16 01:10:27;;;;;;;0.50;0.50;;;;;;;;;;7330050;19;162666;-12
2021/11/16 01:12:58;;;;;;;0.57;0.57;;;;;;;;;;7330422;19;153827;-14
2021/11/16 01:15:30;;;;;;;0.50;0.50;;;;;;;;;;7329853;19;153590;-14
2021/11/16 01:18:05;;;;;;;0.50;0.50;;;;;;;;;;7327747;19;161855;-14
2021/11/16 01:20:37;;;;;;;0.70;0.70;;;;;;;;;;7329971;19;162397;-12
2021/11/16 10:48:08;;;;;;;1.55;0.60;;;;;;;;;;7369839;19;133022;-13
2021/11/16 10:50:42;;;;;;;0.88;0.60;;;;;;;;;;7367751;19;153681;-12
2021/11/16 10:53:15;;;;;;;0.40;0.40;;;;;;;;;;7366847;19;161803;-14
2021/11/16 10:55:49;;;;;;;0.60;0.60;;;;;;;;;;7366563;19;162294;-14
2021/11/16 10:58:26;;;;;;;0.60;0.60;;;;;;;;;;7366653;19;153890;-12
2021/11/16 11:01:03;;;;;;;0.60;0.60;;;;;;;;;;7367097;19;153581;-12
2021/11/16 11:03:40;;;;;;;0.40;0.40;;;;;;;;;;7366692;19;161875;-12
2021/11/16 11:06:14;;;;;;;1.27;0.60;;;;;;;;;;7364833;19;162161;-12
2021/11/16 11:08:48;;;;;;;0.50;0.50;;;;;;;;;;7365745;19;154166;-12
2021/11/16 11:11:27;;;;;;;0.50;0.50;;;;;;;;;;7366072;19;153894;-12
2021/11/16 11:14:02;;;;;;;0.52;0.50;;;;;;;;;;7365635;19;161805;-12
2021/11/16 11:16:36;;;;;;;0.80;0.60;;;;;;;;;;7365506;19;164503;-12
2021/11/16 11:19:12;;;;;;;0.60;0.60;;;;;;;;;;7365217;19;154201;-10
2021/11/16 11:21:48;;;;;;;0.50;0.50;;;;;;;;;;7365829;19;153621;-12
2021/11/16 11:24:24;;;;;;;0.70;0.40;;;;;;;;;;7365271;19;162005;-12
2021/11/16 11:26:59;;;;;;;1.10;0.63;;;;;;;;;;7364261;19;162541;-13
2021/11/16 11:29:37;;;;;;;0.40;0.40;;;;;;;;;;7366813;19;154083;-14
2021/11/16 11:32:15;;;;;;;1.77;0.50;;;;;;;;;;7366242;19;153607;-10
2021/11/16 11:34:58;;;;;;;0.63;0.60;;;;;;;;;;7365755;19;162003;-12
2021/11/16 11:37:31;;;;;;;1.55;0.57;;;;;;;;;;7366637;19;162426;-11
2021/11/16 11:40:08;;;;;;;1.65;0.77;;;;;;;;;;7361969;19;154085;-25
2021/11/16 11:42:42;;;;;;;1.95;0.50;;;;;;;;;;7363035;19;153643;-33
2021/11/16 11:45:20;;;;;;;1.67;0.50;;;;;;;;;;7362453;19;161866;-13
2021/11/16 11:47:53;;;;;;;1.42;0.70;;;;;;;;;;7342356;19;162397;-13
2021/11/16 11:50:32;;;;;;;0.50;0.50;;;;;;;;;;7333556;19;154072;-13
2021/11/16 11:53:05;;;;;;;1.55;0.65;;;;;;;;;;7335164;19;153656;-12
2021/11/16 11:55:46;;;;;;;0.60;0.50;;;;;;;;;;7337494;19;161839;-14
2021/11/16 11:58:19;;;;;;;0.50;0.50;;;;;;;;;;7329254;19;162725;-13
2021/11/16 12:00:52;;;;;;;0.65;0.65;;;;;;;;;;7336496;19;153975;-14
2021/11/16 12:03:24;;;;;;;0.68;0.60;;;;;;;;;;7336050;19;153575;-14
2021/11/16 12:05:59;;;;;;;0.80;0.52;;;;;;;;;;7331225;19;161954;-12
2021/11/16 12:08:32;;;;;;;0.90;0.68;;;;;;;;;;7331268;19;162381;-13
2021/11/16 12:11:03;;;;;;;1.38;0.70;;;;;;;;;;7334952;19;154387;-14
2021/11/16 12:13:37;;;;;;;0.50;0.50;;;;;;;;;;7335771;19;153490;-13
2021/11/16 12:16:10;;;;;;;0.90;0.60;;;;;;;;;;7336197;19;162002;-14
2021/11/16 12:18:44;;;;;;;1.17;0.70;;;;;;;;;;7332131;19;162480;-14
2021/11/16 12:21:34;;;;;;;0.57;0.50;;;;;;;;;;7334446;19;154119;-12
2021/11/16 12:24:06;;;;;;;0.70;0.70;;;;;;;;;;7335595;19;153546;-18
2021/11/16 12:26:40;;;;;;;0.40;0.40;;;;;;;;;;7330320;19;162183;-12
2021/11/16 12:29:17;;;;;;;0.40;0.40;;;;;;;;;;7332249;19;162347;-13
2021/11/16 12:31:50;;;;;;;1.58;0.65;;;;;;;;;;7328910;19;154186;-13
2021/11/16 12:34:41;;;;;;;0.40;0.40;;;;;;;;;;7335281;19;153727;-14
2021/11/16 12:37:31;;;;;;;0.57;0.40;;;;;;;;;;7331454;19;161815;-12
2021/11/16 12:40:06;;;;;;;0.60;0.50;;;;;;;;;;7281583;19;162679;-14
2021/11/16 12:42:38;;;;;;;0.60;0.60;;;;;;;;;;7302610;19;154242;-11
2021/11/16 12:45:13;;;;;;;0.43;0.43;;;;;;;;;;7335445;19;153604;-14
2021/11/16 12:48:03;;;;;;;0.43;0.43;;;;;;;;;;7323809;19;163735;-15
2021/11/16 12:50:35;;;;;;;0.40;0.40;;;;;;;;;;7332452;19;162343;-14
2021/11/16 12:53:09;;;;;;;1.02;0.60;;;;;;;;;;7332432;19;154041;-12
2021/11/16 12:55:41;;;;;;;0.40;0.40;;;;;;;;;;7335368;19;153632;-13
2021/11/16 12:58:29;;;;;;;0.40;0.40;;;;;;;;;;7328952;19;161854;-12
2021/11/16 13:01:01;;;;;;;0.52;0.47;;;;;;;;;;7332939;19;162628;-12
2021/11/16 13:03:57;;;;;;;0.50;0.50;;;;;;;;;;7332542;19;154673;-13
2021/11/16 13:06:29;;;;;;;1.27;0.50;;;;;;;;;;7328988;19;153539;-12
2021/11/16 13:09:03;;;;;;;1.48;0.50;;;;;;;;;;7327998;19;163740;-12
2021/11/16 13:11:43;;;;;;;1.05;0.60;;;;;;;;;;7330225;19;162341;-12
2021/11/16 13:14:35;;;;;;;0.75;0.40;;;;;;;;;;7333507;19;154132;-12
2021/11/16 13:17:36;;;;;;;0.93;0.93;;;;;;;;;;7331501;19;153743;-13
2021/11/16 13:20:08;;;;;;;1.23;0.80;;;;;;;;;;7333398;19;162039;-14
2021/11/16 13:22:51;;;;;;;1.38;0.70;;;;;;;;;;7330041;19;162566;-14
2021/11/16 13:25:45;;;;;;;0.50;0.50;;;;;;;;;;7332608;19;153927;-15
2021/11/16 13:28:59;;;;;;;0.60;0.50;;;;;;;;;;7331769;19;153591;-14
2021/11/16 13:32:02;;;;;;;0.70;0.50;;;;;;;;;;7331963;19;162489;-15
2021/11/16 13:34:51;;;;;;;0.52;0.40;;;;;;;;;;7334819;19;162443;-12
2021/11/16 13:37:25;;;;;;;0.50;0.50;;;;;;;;;;7331750;19;154214;-12
2021/11/16 13:40:14;;;;;;;0.75;0.65;;;;;;;;;;7330715;19;153508;-14
2021/11/16 13:42:50;;;;;;;0.50;0.50;;;;;;;;;;7332742;19;161993;-13
2021/11/16 13:45:22;;;;;;;0.60;0.60;;;;;;;;;;7331726;19;162658;-14
2021/11/16 13:47:54;;;;;;;0.50;0.50;;;;;;;;;;7329534;19;154151;-13
2021/11/16 13:50:29;;;;;;;0.40;0.40;;;;;;;;;;7331273;19;153575;-12
2021/11/16 13:53:05;;;;;;;0.82;0.60;;;;;;;;;;7333327;19;161974;-15
2021/11/16 13:55:47;;;;;;;0.52;0.50;;;;;;;;;;7331944;19;162377;-14
2021/11/16 13:58:25;;;;;;;0.50;0.50;;;;;;;;;;7333847;19;153872;-15
2021/11/16 14:00:57;;;;;;;0.40;0.40;;;;;;;;;;7332776;19;153524;-15
2021/11/16 14:03:29;;;;;;;0.40;0.40;;;;;;;;;;7332790;19;162109;-12
2021/11/16 14:06:01;;;;;;;0.50;0.50;;;;;;;;;;7332175;19;162418;-15
2021/11/16 14:08:36;;;;;;;0.43;0.43;;;;;;;;;;7332292;19;154591;-14
2021/11/16 14:11:09;;;;;;;0.60;0.60;;;;;;;;;;7333243;19;153340;-16
2021/11/16 14:13:48;;;;;;;0.73;0.73;;;;;;;;;;7328661;19;161888;-15
2021/11/16 14:16:21;;;;;;;0.90;0.85;;;;;;;;;;7329377;19;162430;-14
2021/11/16 14:18:53;;;;;;;1.10;1.10;;;;;;;;;;7332952;19;153900;-14
2021/11/16 14:21:27;;;;;;;1.20;1.10;;;;;;;;;;7329810;19;153548;-15
2021/11/16 14:23:58;;;;;;;1.80;0.90;;;;;;;;;;7329346;19;162087;-12
2021/11/16 14:26:41;;;;;;;1.08;0.98;;;;;;;;;;7329463;19;162630;-12
2021/11/16 14:29:21;;;;;;;0.80;0.80;;;;;;;;;;7327949;19;154127;-12
2021/11/16 14:31:53;;;;;;;0.68;0.68;;;;;;;;;;7329098;19;153750;-13
2021/11/16 14:34:27;;;;;;;0.85;0.85;;;;;;;;;;7331553;19;161871;-15
2021/11/16 14:37:00;;;;;;;1.88;0.90;;;;;;;;;;7329475;19;162428;-12
2021/11/16 14:39:36;;;;;;;1.10;1.00;;;;;;;;;;7331083;19;154155;-14
2021/11/16 14:42:10;;;;;;;1.13;1.00;;;;;;;;;;7328748;19;153783;-15
2021/11/16 14:44:46;;;;;;;0.68;0.68;;;;;;;;;;7331189;19;161807;-13
2021/11/16 14:47:21;;;;;;;11.60;1.52;;;;;;;;;;7325227;19;162544;-13
2021/11/16 14:50:00;;;;;;;1.13;0.95;;;;;;;;;;7326607;19;153908;-12
2021/11/16 14:52:35;;;;;;;1.00;0.73;;;;;;;;;;7327281;19;153462;-13
2021/11/16 14:55:10;;;;;;;1.52;1.10;;;;;;;;;;7328072;19;162072;-13
2021/11/16 14:57:43;;;;;;;0.80;0.80;;;;;;;;;;7327957;19;162461;-13
2021/11/16 15:00:21;;;;;;;0.90;0.90;;;;;;;;;;7328431;19;154010;-13
2021/11/16 15:02:55;;;;;;;0.65;0.60;;;;;;;;;;7328159;19;153475;-15
2021/11/16 15:05:28;;;;;;;1.02;0.88;;;;;;;;;;7327802;19;162330;-14
2021/11/16 15:08:33;;;;;;;1.10;0.90;;;;;;;;;;7327920;19;162506;-13
2021/11/16 15:11:10;;;;;;;0.85;0.85;;;;;;;;;;7326992;19;153846;-22
2021/11/16 15:13:42;;;;;;;0.80;0.80;;;;;;;;;;7327972;19;153856;-13
2021/11/16 15:16:18;;;;;;;0.80;0.80;;;;;;;;;;7327471;19;162108;-21
2021/11/16 15:19:09;;;;;;;0.80;0.80;;;;;;;;;;7327673;19;162620;-20
2021/11/16 15:21:51;;;;;;;1.27;0.90;;;;;;;;;;7327902;19;154148;-13
2021/11/16 15:24:38;;;;;;;0.93;0.93;;;;;;;;;;7333321;19;153529;-12
2021/11/16 15:27:19;;;;;;;1.05;0.95;;;;;;;;;;7334193;19;162160;-12
2021/11/16 15:30:10;;;;;;;1.10;1.00;;;;;;;;;;7332554;19;162279;-12
2021/11/16 15:32:57;;;;;;;0.80;0.80;;;;;;;;;;7334593;19;154135;-12
2021/11/16 15:35:47;;;;;;;1.73;1.00;;;;;;;;;;7334195;19;153739;-13
2021/11/16 15:38:24;;;;;;;0.75;0.75;;;;;;;;;;7333853;19;161811;-13
2021/11/16 15:41:00;;;;;;;0.75;0.75;;;;;;;;;;7332766;19;162417;-13
2021/11/16 15:43:51;;;;;;;1.20;0.77;;;;;;;;;;7334038;19;153971;-13
2021/11/16 15:46:39;;;;;;;0.70;0.70;;;;;;;;;;7331746;19;153540;-13
2021/11/16 15:49:16;;;;;;;0.90;0.90;;;;;;;;;;7332843;19;161805;-13
2021/11/16 15:51:54;;;;;;;0.70;0.70;;;;;;;;;;7333592;19;162437;-13
2021/11/16 15:57:30;;;;;;;0.60;0.60;;;;;;;;;;7333820;19;153588;-13
2021/11/16 16:00:03;;;;;;;0.90;0.90;;;;;;;;;;7332226;19;161986;-13
2021/11/16 16:02:36;;;;;;;0.80;0.80;;;;;;;;;;7333294;19;162638;-13
2021/11/16 16:05:23;;;;;;;0.73;0.73;;;;;;;;;;7333650;19;154116;-14
2021/11/16 16:07:59;;;;;;;0.80;0.80;;;;;;;;;;7333602;19;153703;-13
2021/11/16 16:10:32;;;;;;;0.70;0.70;;;;;;;;;;7330166;19;162073;-13
2021/11/16 16:13:03;;;;;;;1.00;0.90;;;;;;;;;;7332019;19;162449;-14
2021/11/16 16:15:37;;;;;;;0.70;0.70;;;;;;;;;;7333468;19;154224;-14
2021/11/16 16:18:18;;;;;;;0.77;0.77;;;;;;;;;;7333416;19;153531;-14
2021/11/16 16:20:54;;;;;;;0.55;0.55;;;;;;;;;;7333053;19;161958;-15
2021/11/16 16:23:26;;;;;;;0.60;0.60;;;;;;;;;;7332994;19;162585;-15
2021/11/16 16:26:00;;;;;;;0.80;0.80;;;;;;;;;;7333391;19;154056;-14
2021/11/16 16:28:31;;;;;;;0.57;0.57;;;;;;;;;;7332928;19;153532;-14
2021/11/16 16:31:02;;;;;;;0.65;0.65;;;;;;;;;;7330391;19;162215;-13
2021/11/16 16:33:34;;;;;;;0.90;0.70;;;;;;;;;;7332200;19;162357;-14
2021/11/16 16:36:08;;;;;;;1.05;0.75;;;;;;;;;;7332876;19;154310;-14
2021/11/16 16:38:39;;;;;;;2.38;0.77;;;;;;;;;;7332642;19;153493;-13
2021/11/16 16:41:24;;;;;;;0.77;0.77;;;;;;;;;;7332257;19;161899;-13
2021/11/16 16:43:58;;;;;;;0.60;0.60;;;;;;;;;;7331931;19;162382;-13
2021/11/16 16:46:31;;;;;;;0.50;0.50;;;;;;;;;;7329826;19;154031;-14
2021/11/16 16:49:03;;;;;;;1.35;0.63;;;;;;;;;;7332478;19;153539;-14
2021/11/16 16:51:38;;;;;;;0.70;0.70;;;;;;;;;;7328422;19;161834;-14
2021/11/16 16:54:13;;;;;;;0.60;0.60;;;;;;;;;;7331289;19;162517;-13
2021/11/16 16:56:47;;;;;;;1.30;0.80;;;;;;;;;;7332097;19;154259;-13
2021/11/16 16:59:24;;;;;;;0.70;0.70;;;;;;;;;;7332018;19;153580;-13
2021/11/16 17:02:03;;;;;;;1.67;0.80;;;;;;;;;;7331296;19;161914;-14
2021/11/16 17:04:39;;;;;;;0.70;0.70;;;;;;;;;;7331556;19;162422;-13
2021/11/16 17:07:13;;;;;;;0.70;0.70;;;;;;;;;;7332077;19;153974;-15
2021/11/16 17:09:47;;;;;;;0.60;0.60;;;;;;;;;;7331532;19;153453;-15
2021/11/16 17:12:20;;;;;;;0.77;0.77;;;;;;;;;;7331392;19;161931;-14
2021/11/16 17:14:53;;;;;;;0.70;0.70;;;;;;;;;;7331304;19;162377;-13
2021/11/16 17:17:31;;;;;;;0.68;0.68;;;;;;;;;;7331862;19;154025;-13
2021/11/16 17:20:03;;;;;;;0.90;0.90;;;;;;;;;;7331462;19;153502;-14
2021/11/16 17:22:37;;;;;;;0.60;0.60;;;;;;;;;;7331246;19;161975;-14
2021/11/16 17:25:09;;;;;;;0.68;0.68;;;;;;;;;;7331111;19;162390;-15
2021/11/16 17:27:41;;;;;;;0.82;0.80;;;;;;;;;;7331569;19;154231;-16
2021/11/16 17:30:13;;;;;;;0.73;0.68;;;;;;;;;;7330845;19;153821;-14
2021/11/16 17:32:44;;;;;;;0.70;0.70;;;;;;;;;;7331253;19;161936;-15
2021/11/16 17:35:15;;;;;;;0.85;0.70;;;;;;;;;;7330894;19;163517;-13
2021/11/16 17:37:49;;;;;;;0.70;0.70;;;;;;;;;;7331472;19;154089;-13
2021/11/16 17:40:22;;;;;;;0.73;0.73;;;;;;;;;;7331091;19;153255;-13
2021/11/16 17:42:53;;;;;;;;;;;;;;;;;;7331120;19;162480;-19
2021/11/16 17:45:24;;;;;;;0.70;0.70;;;;;;;;;;7329453;19;162685;-14
2021/11/16 17:47:56;;;;;;;0.70;0.70;;;;;;;;;;7330926;19;154301;-14
2021/11/16 17:50:31;;;;;;;0.60;0.60;;;;;;;;;;7329829;19;153557;-15
2021/11/16 17:53:06;;;;;;;1.13;0.75;;;;;;;;;;7330586;19;161886;-14
2021/11/16 17:55:37;;;;;;;1.45;0.70;;;;;;;;;;7330198;19;162365;-13
2021/11/16 17:58:11;;;;;;;0.68;0.68;;;;;;;;;;7330404;19;154015;-15
2021/11/16 18:00:42;;;;;;;0.70;0.70;;;;;;;;;;7329365;19;153537;-13
2021/11/16 18:03:16;;;;;;;0.80;0.80;;;;;;;;;;7329077;19;161984;-14
2021/11/16 18:05:49;;;;;;;0.65;0.65;;;;;;;;;;7329804;19;162539;-13
2021/11/16 18:08:31;;;;;;;0.60;0.60;;;;;;;;;;7329867;19;154324;-14
2021/11/16 18:11:03;;;;;;;1.00;0.80;;;;;;;;;;7328927;19;153487;-16
2021/11/16 18:13:35;;;;;;;0.70;0.70;;;;;;;;;;7329848;19;162170;-25
2021/11/16 18:16:18;;;;;;;;;;;;;;;;;;7330274;19;162624;-13
2021/11/16 18:18:56;;;;;;;0.60;0.60;;;;;;;;;;7330044;19;154147;-14
2021/11/16 18:21:29;;;;;;;0.80;0.80;;;;;;;;;;7329829;19;153543;-14
2021/11/16 18:24:06;;;;;;;0.80;0.80;;;;;;;;;;7329452;19;162252;-14
2021/11/16 18:26:42;;;;;;;0.80;0.80;;;;;;;;;;7329329;19;162374;-13
2021/11/16 18:29:13;;;;;;;0.95;0.95;;;;;;;;;;7329663;19;154091;-14
2021/11/16 18:31:44;;;;;;;0.60;0.60;;;;;;;;;;7327995;19;154293;-13
2021/11/16 18:34:38;;;;;;;1.00;1.00;;;;;;;;;;7329033;19;161815;-14
2021/11/16 18:37:49;;;;;;;1.08;1.00;;;;;;;;;;7328830;19;162487;-14
2021/11/16 18:40:30;;;;;;;0.90;0.90;;;;;;;;;;7328071;19;153997;-13
2021/11/16 18:43:28;;;;;;;0.80;0.80;;;;;;;;;;7328898;19;153853;-13
2021/11/16 18:46:32;;;;;;;0.90;0.90;;;;;;;;;;7327170;19;161630;-15
2021/11/16 18:49:05;;;;;;;0.90;0.90;;;;;;;;;;7328725;19;162731;-15
2021/11/16 18:51:37;;;;;;;1.00;1.00;;;;;;;;;;7327506;19;154017;-13
2021/11/16 18:54:08;;;;;;;1.00;1.00;;;;;;;;;;7328825;19;153845;-15
2021/11/16 18:56:57;;;;;;;0.90;0.90;;;;;;;;;;7328309;19;161823;-14
2021/11/16 18:59:31;;;;;;;0.80;0.80;;;;;;;;;;7333944;19;162641;-13
2021/11/16 19:02:03;;;;;;;1.02;1.02;;;;;;;;;;7335406;19;154100;-13
2021/11/16 19:04:36;;;;;;;1.00;0.93;;;;;;;;;;7335268;19;153546;-15
2021/11/16 19:07:09;;;;;;;0.80;0.80;;;;;;;;;;7335122;19;162071;-14
2021/11/16 19:09:42;;;;;;;0.80;0.80;;;;;;;;;;7333331;19;162602;-13
2021/11/16 19:12:18;;;;;;;1.00;1.00;;;;;;;;;;7333660;19;154002;-14
2021/11/16 19:14:51;;;;;;;0.70;0.70;;;;;;;;;;7335178;19;153570;-14
2021/11/16 19:17:22;;;;;;;0.82;0.82;;;;;;;;;;7334567;19;161970;-15
2021/11/16 19:19:56;;;;;;;0.80;0.80;;;;;;;;;;7334556;19;162569;-12
2021/11/16 19:22:28;;;;;;;0.90;0.90;;;;;;;;;;7334922;19;154183;-14
2021/11/16 19:25:03;;;;;;;0.80;0.80;;;;;;;;;;7334820;19;153642;-12
2021/11/16 19:27:44;;;;;;;0.80;0.80;;;;;;;;;;7333049;19;161986;-12
2021/11/16 19:30:19;;;;;;;0.95;0.95;;;;;;;;;;7332928;19;162572;-13
2021/11/16 19:32:53;;;;;;;0.80;0.80;;;;;;;;;;7331778;19;154019;-15
2021/11/16 19:35:28;;;;;;;0.80;0.80;;;;;;;;;;7333418;19;153510;-13
2021/11/16 19:38:04;;;;;;;0.70;0.70;;;;;;;;;;7334049;19;162053;-14
2021/11/16 19:40:36;;;;;;;0.90;0.90;;;;;;;;;;7334119;19;163082;-13
2021/11/16 19:43:14;;;;;;;0.80;0.80;;;;;;;;;;7334362;19;154080;-14
2021/11/16 19:45:49;;;;;;;1.00;1.00;;;;;;;;;;7333683;19;153770;-15
2021/11/16 19:48:20;;;;;;;0.80;0.80;;;;;;;;;;7333856;19;162341;-14
2021/11/16 19:50:53;;;;;;;0.88;0.88;;;;;;;;;;7333963;19;162753;-14
2021/11/16 19:53:24;;;;;;;0.97;0.97;;;;;;;;;;7331939;19;154092;-15
2021/11/16 19:55:56;;;;;;;0.80;0.80;;;;;;;;;;7333519;19;153600;-14
2021/11/16 19:58:30;;;;;;;1.00;1.00;;;;;;;;;;7332024;19;162223;-13
2021/11/16 20:01:01;;;;;;;0.73;0.73;;;;;;;;;;7333880;19;162637;-15
2021/11/16 20:03:32;;;;;;;0.90;0.90;;;;;;;;;;7334257;19;154751;-13
2021/11/16 20:06:04;;;;;;;0.82;0.82;;;;;;;;;;7334152;19;153872;-14
2021/11/16 20:08:35;;;;;;;0.80;0.80;;;;;;;;;;7331708;19;161854;-19
2021/11/16 20:11:06;;;;;;;0.90;0.90;;;;;;;;;;7332737;19;162357;-14
2021/11/16 20:13:41;;;;;;;0.80;0.80;;;;;;;;;;7331689;19;154128;-14
2021/11/16 20:16:14;;;;;;;0.90;0.90;;;;;;;;;;7333979;19;153560;-13
2021/11/16 20:18:46;;;;;;;0.90;0.90;;;;;;;;;;7333366;19;161822;-15
2021/11/16 20:21:17;;;;;;;0.82;0.82;;;;;;;;;;7333090;19;162368;-12
2021/11/16 20:23:48;;;;;;;0.82;0.82;;;;;;;;;;7333814;19;153966;-13
2021/11/16 20:26:21;;;;;;;1.17;1.00;;;;;;;;;;7332439;19;153519;-13
2021/11/16 20:28:57;;;;;;;0.90;0.90;;;;;;;;;;7333118;19;161846;-15
2021/11/16 20:31:32;;;;;;;0.80;0.80;;;;;;;;;;7332928;19;162394;-13
2021/11/16 20:34:06;;;;;;;0.80;0.80;;;;;;;;;;7331014;19;154081;-14
2021/11/16 20:36:42;;;;;;;0.82;0.82;;;;;;;;;;7333163;19;153718;-14
2021/11/16 20:39:26;;;;;;;0.80;0.80;;;;;;;;;;7332487;19;161998;-13
2021/11/16 20:59:12;;;;;;;0.77;0.77;;;;;;;;;;7328070;19;153624;-15
2021/11/16 21:03:08;;;;;;;1.05;1.05;;;;;;;;;;7335627;19;162680;-13
2021/11/16 21:05:39;;;;;;;0.90;0.90;;;;;;;;;;7333239;19;162393;-13
2021/11/16 21:08:24;;;;;;;0.80;0.80;;;;;;;;;;7334771;19;154243;-14
2021/11/16 21:11:08;;;;;;;0.85;0.85;;;;;;;;;;7332049;19;153639;-13
2021/11/16 21:13:39;;;;;;;1.10;1.10;;;;;;;;;;7332104;19;162033;-14
2021/11/16 21:16:13;;;;;;;1.10;1.10;;;;;;;;;;7331775;19;162621;-14
2021/11/16 21:18:46;;;;;;;1.00;0.90;;;;;;;;;;7331004;19;154047;-14
2021/11/16 21:21:22;;;;;;;;;;;;;;;;;;7328035;19;153539;-14
2021/11/16 21:24:02;;;;;;;0.90;0.90;;;;;;;;;;7328461;19;162227;-13
2021/11/16 21:26:43;;;;;;;1.10;1.00;;;;;;;;;;7330835;19;162696;-12
2021/11/16 21:29:22;;;;;;;0.88;0.88;;;;;;;;;;7330967;19;154122;-15
2021/11/16 21:31:56;;;;;;;0.93;0.93;;;;;;;;;;7331140;19;153927;-13
2021/11/16 21:34:27;;;;;;;1.10;1.10;;;;;;;;;;7326413;19;162087;-12
2021/11/16 21:36:59;;;;;;;0.90;0.90;;;;;;;;;;7329932;19;162064;-12
2021/11/16 21:39:31;;;;;;;0.90;0.90;;;;;;;;;;7330996;19;153941;-12
2021/11/16 21:42:03;;;;;;;0.90;0.90;;;;;;;;;;7331021;19;153950;-12
2021/11/16 21:44:36;;;;;;;1.00;1.00;;;;;;;;;;7332558;19;162032;-13
2021/11/16 21:47:13;;;;;;;0.82;0.82;;;;;;;;;;7327576;19;162608;-13
2021/11/16 21:49:46;;;;;;;1.00;1.00;;;;;;;;;;7329838;19;154097;-13
2021/11/16 21:52:17;;;;;;;0.82;0.82;;;;;;;;;;7333194;19;153918;-12
2021/11/16 21:54:48;;;;;;;0.90;0.90;;;;;;;;;;7329462;19;161998;-15
2021/11/16 21:57:20;;;;;;;0.82;0.82;;;;;;;;;;7333440;19;162671;-14
2021/11/16 21:59:52;;;;;;;0.75;0.75;;;;;;;;;;7332774;19;154025;-15
2021/11/16 22:02:26;;;;;;;2.03;0.95;;;;;;;;;;7333620;19;153564;-14
2021/11/16 22:05:04;;;;;;;0.80;0.80;;;;;;;;;;7333438;19;161888;-13
2021/11/16 22:07:47;;;;;;;1.15;0.80;;;;;;;;;;7333291;19;162529;-15
2021/11/16 22:10:19;;;;;;;;;;;;;;;;;;7334249;19;154076;-13
2021/11/16 22:12:51;;;;;;;1.10;1.10;;;;;;;;;;7333717;19;153466;-14
2021/11/16 22:15:23;;;;;;;0.70;0.70;;;;;;;;;;7332069;19;161840;-14
2021/11/16 22:17:57;;;;;;;0.95;0.95;;;;;;;;;;7332561;19;162519;-14
2021/11/16 22:20:29;;;;;;;0.80;0.80;;;;;;;;;;7332775;19;154104;-14
2021/11/16 22:23:00;;;;;;;2.22;0.80;;;;;;;;;;7333518;19;153816;-14
2021/11/16 22:25:31;;;;;;;0.80;0.80;;;;;;;;;;7332855;19;162669;-14
2021/11/16 22:28:03;;;;;;;0.80;0.80;;;;;;;;;;7331457;19;162619;-13
2021/11/16 22:30:34;;;;;;;1.00;0.90;;;;;;;;;;7332932;19;153985;-14
2021/11/16 22:33:16;;;;;;;1.13;1.02;;;;;;;;;;7332563;19;153821;-14
2021/11/16 22:35:48;;;;;;;1.00;1.00;;;;;;;;;;7331480;19;161913;-15
2021/11/16 22:38:19;;;;;;;0.88;0.88;;;;;;;;;;7332576;19;163678;-13
2021/11/16 22:40:51;;;;;;;0.90;0.90;;;;;;;;;;7332535;19;154030;-13
2021/11/16 22:43:22;;;;;;;1.10;1.10;;;;;;;;;;7332826;19;153525;-14
2021/11/16 22:45:54;;;;;;;0.80;0.80;;;;;;;;;;7331444;19;162165;-13
2021/11/16 22:48:28;;;;;;;0.85;0.85;;;;;;;;;;7331800;19;162651;-15
2021/11/16 22:50:59;;;;;;;0.80;0.80;;;;;;;;;;7332645;19;154026;-15
2021/11/16 22:53:30;;;;;;;1.10;1.00;;;;;;;;;;7332121;19;153514;-15
2021/11/16 22:56:02;;;;;;;1.00;1.00;;;;;;;;;;7331651;19;161989;-14
2021/11/16 22:58:34;;;;;;;0.90;0.90;;;;;;;;;;7330733;19;162585;-14
